Time;durP1;ratioP1;P1;durP2;ratioP2;P2;SDS_P1;SDS_P2;PMS_P1;PMS_P2;Temp;Humidity;BMP_temperature;BMP_pressure;BME280_temperature;BME280_humidity;BME280_pressure;Samples;Min_cycle;Max_cycle;Signal;HPM_P1;HPM_P2
2022/11/19 00:03:31;;;;;;;5.88;3.25;;;;;;;7.55;79.30;99507.06;10171129;29;20075;-66
2022/11/19 00:08:33;;;;;;;7.35;3.63;;;;;;;7.34;79.57;99513.03;10167341;29;20067;-66
2022/11/19 00:13:35;;;;;;;5.82;3.70;;;;;;;7.29;79.72;99521.59;10167509;29;20135;-65
2022/11/19 00:18:36;;;;;;;10.82;4.00;;;;;;;7.40;78.59;99525.69;10167049;29;20092;-64
2022/11/19 00:23:39;;;;;;;6.57;3.85;;;;;;;7.31;78.96;99516.91;10168332;29;20361;-65
2022/11/19 00:28:40;;;;;;;5.47;3.30;;;;;;;7.33;79.19;99532.75;10165708;29;20071;-65
2022/11/19 00:33:44;;;;;;;5.35;3.50;;;;;;;7.30;78.95;99525.91;10165939;29;20112;-68
2022/11/19 00:38:45;;;;;;;8.77;4.35;;;;;;;7.29;78.39;99521.59;10163344;29;20439;-66
2022/11/19 00:43:46;;;;;;;7.15;4.55;;;;;;;7.22;78.79;99528.63;10165014;29;20123;-67
2022/11/19 00:48:51;;;;;;;8.75;4.88;;;;;;;7.16;78.74;99523.97;10178694;29;20783;-68
2022/11/19 00:53:52;;;;;;;8.48;4.15;;;;;;;7.18;78.67;99524.63;10166830;29;20123;-67
2022/11/19 00:58:55;;;;;;;8.90;5.40;;;;;;;7.13;78.79;99532.38;10156694;29;20128;-68
2022/11/19 01:03:56;;;;;;;10.57;4.85;;;;;;;7.14;79.49;99528.66;10189141;29;20035;-64
2022/11/19 01:08:58;;;;;;;9.57;5.22;;;;;;;7.14;78.95;99536.69;10218862;29;20060;-64
2022/11/19 01:13:59;;;;;;;8.98;5.07;;;;;;;7.16;78.12;99537.34;10201869;29;20047;-64
2022/11/19 01:19:02;;;;;;;11.43;5.47;;;;;;;7.11;78.59;99543.22;10218493;29;20034;-62
2022/11/19 01:24:05;;;;;;;11.77;5.88;;;;;;;6.94;79.17;99549.63;10217269;29;20035;-64
2022/11/19 01:29:06;;;;;;;12.45;7.25;;;;;;;6.72;79.43;99557.38;10217759;28;20035;-64
2022/11/19 01:34:07;;;;;;;11.48;6.45;;;;;;;6.61;79.24;99559.56;10214804;29;20036;-64
2022/11/19 01:39:09;;;;;;;12.43;6.43;;;;;;;6.47;79.13;99575.25;10224777;28;20047;-63
2022/11/19 01:45:04;;;;;;;12.65;6.10;;;;;;;6.51;79.39;99568.59;10217032;29;20036;-64
2022/11/19 01:50:06;;;;;;;11.82;5.72;;;;;;;6.40;79.14;99579.63;10193747;28;20190;-63
2022/11/19 01:55:08;;;;;;;13.93;6.72;;;;;;;6.29;79.58;99574.63;10216707;29;20051;-64
2022/11/19 02:00:11;;;;;;;13.07;6.10;;;;;;;6.21;78.93;99572.78;10216784;29;20047;-63
2022/11/19 02:05:12;;;;;;;12.10;6.40;;;;;;;6.28;79.11;99573.78;10215450;29;20047;-64
2022/11/19 02:10:14;;;;;;;14.35;7.57;;;;;;;6.20;79.66;99570.28;10212079;29;20040;-64
2022/11/19 02:15:50;;;;;;;13.73;7.88;;;;;;;6.19;79.47;99577.47;10215607;29;20043;-64
2022/11/19 02:21:26;;;;;;;17.98;8.38;;;;;;;6.19;79.28;99589.97;10215276;29;20051;-64
2022/11/19 02:26:55;;;;;;;15.60;8.38;;;;;;;6.15;79.07;99579.63;10207875;29;20032;-64
2022/11/19 02:31:57;;;;;;;18.10;8.50;;;;;;;6.05;79.74;99589.63;10214450;29;20048;-64
2022/11/19 02:37:15;;;;;;;20.77;9.98;;;;;;;5.97;78.91;99583.47;10213211;28;20040;-64
2022/11/19 02:42:30;;;;;;;17.02;9.02;;;;;;;5.88;79.57;99585.22;10212933;29;20043;-64
2022/11/19 02:47:57;;;;;;;17.90;9.02;;;;;;;5.81;80.04;99584.25;10210945;29;20047;-63
2022/11/19 02:52:58;;;;;;;18.05;8.73;;;;;;;5.64;80.01;99591.34;10207916;29;20031;-64
2022/11/19 03:09:01;;;;;;;17.65;9.00;;;;;;;5.55;80.26;99598.50;10192373;29;20431;-63
2022/11/19 03:20:00;;;;;;;18.08;8.95;;;;;;;5.44;80.24;99614.78;10192075;29;20044;-64
2022/11/19 03:25:17;;;;;;;21.60;9.38;;;;;;;5.46;80.36;99620.81;10190821;29;20044;-64
2022/11/19 03:30:19;;;;;;;22.48;9.23;;;;;;;5.49;80.05;99617.78;10189459;29;20059;-65
2022/11/19 03:35:33;;;;;;;19.15;9.10;;;;;;;5.47;80.37;99630.44;10182863;29;20068;-64
2022/11/19 03:40:36;;;;;;;21.83;9.77;;;;;;;5.37;80.50;99630.56;10186130;29;20051;-64
2022/11/19 03:45:42;;;;;;;25.23;11.02;;;;;;;5.25;80.27;99631.84;10193236;29;20503;-64
2022/11/19 03:50:49;;;;;;;21.17;10.25;;;;;;;5.24;80.86;99635.53;10209379;29;20044;-64
2022/11/19 03:56:02;;;;;;;18.98;9.90;;;;;;;5.30;80.38;99648.22;10205215;29;20039;-64
2022/11/19 04:01:03;;;;;;;22.33;9.95;;;;;;;5.14;80.75;99641.81;10219460;29;20040;-65
2022/11/19 04:06:05;;;;;;;21.00;10.35;;;;;;;5.13;80.16;99645.47;10213642;29;20072;-64
2022/11/19 04:11:07;;;;;;;25.90;10.63;;;;;;;5.09;80.15;99645.94;10214103;29;20044;-65
2022/11/19 04:16:07;;;;;;;22.38;11.07;;;;;;;5.01;80.40;99648.56;10208472;29;20047;-65
2022/11/19 04:21:09;;;;;;;21.40;10.77;;;;;;;4.95;80.89;99653.50;10198327;29;20040;-65
2022/11/19 04:26:10;;;;;;;24.70;11.82;;;;;;;4.93;80.28;99663.47;10207842;29;20230;-65
2022/11/19 04:31:11;;;;;;;25.35;10.70;;;;;;;4.89;80.39;99672.78;10206727;29;20052;-65
2022/11/19 04:36:18;;;;;;;27.02;12.45;;;;;;;4.89;80.29;99667.44;10203049;29;20048;-66
2022/11/19 04:41:19;;;;;;;26.92;12.13;;;;;;;4.91;80.65;99669.97;10210928;29;20044;-64
2022/11/19 04:46:21;;;;;;;27.77;13.38;;;;;;;4.92;79.99;99671.66;10211352;29;20036;-65
2022/11/19 04:51:22;;;;;;;28.13;12.50;;;;;;;4.92;80.29;99668.97;10208460;29;20045;-65
2022/11/19 04:56:24;;;;;;;30.92;13.43;;;;;;;4.90;80.15;99678.97;10210455;29;20044;-64
2022/11/19 05:01:26;;;;;;;31.45;15.20;;;;;;;4.85;80.02;99683.91;10211102;29;20039;-64
2022/11/19 05:06:27;;;;;;;28.85;13.38;;;;;;;4.85;80.38;99690.06;10212492;29;20048;-64
2022/11/19 05:11:29;;;;;;;27.05;11.15;;;;;;;4.79;79.95;99688.00;10209488;29;20049;-65
2022/11/19 05:16:30;;;;;;;21.90;9.00;;;;;;;4.76;80.36;99697.16;10173431;29;20044;-63
2022/11/19 05:21:31;;;;;;;19.13;8.93;;;;;;;4.82;79.83;99692.19;10169437;29;20036;-63
2022/11/19 05:26:33;;;;;;;24.85;10.52;;;;;;;4.79;80.29;99698.66;10173262;29;20051;-63
2022/11/19 05:31:34;;;;;;;26.70;11.85;;;;;;;4.77;79.75;99709.47;10175162;29;20103;-65
2022/11/19 05:36:36;;;;;;;24.95;10.55;;;;;;;4.74;80.64;99708.97;10165531;29;20139;-66
2022/11/19 05:41:37;;;;;;;28.15;11.98;;;;;;;4.68;80.40;99707.75;10161480;29;20547;-66
2022/11/19 05:46:38;;;;;;;23.25;10.75;;;;;;;4.72;80.28;99713.56;10166026;29;20070;-65
2022/11/19 05:51:40;;;;;;;24.33;10.52;;;;;;;4.66;80.41;99716.84;10170968;29;20143;-65
2022/11/19 05:56:41;;;;;;;21.35;9.18;;;;;;;4.61;80.61;99721.81;10188853;29;20051;-64
2022/11/19 06:01:43;;;;;;;18.10;8.65;;;;;;;4.54;80.38;99727.75;10303320;23;20042;-87
2022/11/19 06:06:44;;;;;;;17.00;7.88;;;;;;;4.47;80.25;99728.53;10317215;28;20078;-88
2022/11/19 06:11:51;;;;;;;15.70;8.50;;;;;;;4.32;80.23;99734.34;10303846;28;20705;-88
2022/11/19 06:16:57;;;;;;;16.30;7.45;;;;;;;4.26;80.42;99742.94;10323600;28;20043;-88
2022/11/19 06:21:59;;;;;;;18.08;7.63;;;;;;;4.24;79.92;99736.09;10304714;28;20056;-89
2022/11/19 06:27:00;;;;;;;19.83;8.30;;;;;;;4.22;80.13;99746.88;10302348;28;20078;-87
2022/11/19 06:32:02;;;;;;;16.88;7.60;;;;;;;4.22;80.74;99751.38;10271719;28;20662;-88
2022/11/19 06:37:03;;;;;;;14.88;7.25;;;;;;;4.21;80.22;99753.19;10268961;28;20054;-87
2022/11/19 06:47:25;;;;;;;19.40;8.50;;;;;;;4.33;80.60;99756.50;10287339;28;20057;-85
2022/11/19 06:52:27;;;;;;;18.52;7.97;;;;;;;4.35;80.64;99765.97;10252343;28;20058;-85
2022/11/19 06:57:29;;;;;;;15.55;7.18;;;;;;;4.50;80.08;99766.31;10271551;28;20055;-85
2022/11/19 07:02:30;;;;;;;18.38;7.90;;;;;;;4.61;80.16;99767.91;10258073;28;20047;-84
2022/11/19 07:07:33;;;;;;;13.80;6.78;;;;;;;4.63;80.15;99771.25;10195433;28;20047;-87
2022/11/19 07:12:35;;;;;;;14.55;6.30;;;;;;;4.63;80.50;99775.75;10208725;28;20130;-87
2022/11/19 07:17:36;;;;;;;12.35;5.80;;;;;;;4.61;80.15;99778.53;10218189;28;20049;-85
2022/11/19 07:22:41;;;;;;;13.70;6.68;;;;;;;4.63;80.00;99789.88;10234814;28;20051;-85
2022/11/19 07:27:45;;;;;;;15.27;7.18;;;;;;;4.72;80.31;99790.78;10200698;28;20062;-85
2022/11/19 07:32:46;;;;;;;11.88;5.90;;;;;;;4.75;80.31;99790.50;10211509;28;20047;-86
2022/11/19 07:37:48;;;;;;;12.95;5.60;;;;;;;4.74;80.38;99796.81;10226045;28;20053;-84
2022/11/19 07:42:52;;;;;;;13.50;6.13;;;;;;;4.74;80.53;99805.63;10214777;28;20054;-84
2022/11/19 07:47:53;;;;;;;10.63;4.75;;;;;;;4.76;80.93;99808.16;10218093;28;20051;-85
2022/11/19 07:52:57;;;;;;;12.73;4.63;;;;;;;4.69;80.72;99805.25;10237794;28;20126;-85
2022/11/19 07:57:59;;;;;;;10.70;4.82;;;;;;;4.75;80.78;99803.81;10212937;28;20048;-86
2022/11/19 08:03:01;;;;;;;9.57;4.72;;;;;;;4.75;80.07;99801.13;10215232;28;20105;-85
2022/11/19 08:08:02;;;;;;;13.07;5.38;;;;;;;4.65;80.61;99813.69;10223327;28;20043;-86
2022/11/19 08:13:04;;;;;;;13.02;6.32;;;;;;;4.52;80.75;99819.38;10227980;28;20055;-84
2022/11/19 08:18:12;;;;;;;12.20;5.70;;;;;;;4.51;80.50;99823.84;10210969;28;20047;-85
2022/11/19 08:23:14;;;;;;;12.90;5.10;;;;;;;4.36;80.37;99823.53;10243284;28;20051;-85
2022/11/19 08:28:16;;;;;;;15.05;7.65;;;;;;;4.36;80.02;99836.00;10209288;28;20055;-85
2022/11/19 08:33:17;;;;;;;15.50;7.05;;;;;;;4.35;80.17;99827.19;10209816;28;20055;-84
2022/11/19 08:38:19;;;;;;;18.63;8.15;;;;;;;4.35;80.44;99835.16;10217958;28;20044;-85
2022/11/19 08:43:20;;;;;;;18.80;8.10;;;;;;;4.34;80.24;99840.63;10238117;28;20066;-85
2022/11/19 08:48:22;;;;;;;20.80;9.60;;;;;;;4.28;80.79;99843.88;10229078;28;20598;-85
2022/11/19 08:53:23;;;;;;;23.90;10.40;;;;;;;4.34;80.73;99846.81;10226417;28;20071;-85
2022/11/19 08:58:25;;;;;;;22.17;9.90;;;;;;;4.45;80.69;99848.41;10223834;28;20047;-90
2022/11/19 09:03:26;;;;;;;19.70;9.00;;;;;;;4.48;81.02;99849.94;10244642;23;20095;-61
2022/11/19 09:08:28;;;;;;;21.27;9.43;;;;;;;4.46;81.35;99859.88;10233793;28;20075;-61
2022/11/19 09:13:29;;;;;;;17.15;8.30;;;;;;;4.51;81.43;99861.13;10235708;28;20145;-62
2022/11/19 09:18:32;;;;;;;19.55;8.73;;;;;;;4.52;81.26;99860.16;10234955;28;20090;-61
2022/11/19 09:23:33;;;;;;;19.73;8.88;;;;;;;4.61;80.84;99862.91;10236942;28;20062;-61
2022/11/19 09:28:35;;;;;;;18.50;8.50;;;;;;;4.53;80.95;99879.59;10231411;28;20110;-61
2022/11/19 09:33:40;;;;;;;20.98;9.70;;;;;;;4.54;81.61;99884.78;10225168;28;20138;-62
2022/11/19 09:38:42;;;;;;;19.67;8.07;;;;;;;4.57;81.28;99884.47;10242596;28;20414;-60
2022/11/19 09:44:11;;;;;;;17.58;8.50;;;;;;;4.60;81.19;99879.84;10234703;28;20071;-67
2022/11/19 09:49:17;;;;;;;19.13;8.48;;;;;;;4.65;81.10;99889.06;10227244;28;20075;-67
2022/11/19 09:54:20;;;;;;;18.30;8.50;;;;;;;4.66;80.73;99880.09;10218711;28;20048;-65
2022/11/19 09:59:27;;;;;;;19.48;8.75;;;;;;;4.77;80.37;99890.50;10236002;28;20110;-65
2022/11/19 10:04:32;;;;;;;21.50;10.30;;;;;;;4.90;80.11;99884.00;10232740;28;20079;-65
2022/11/19 10:09:57;;;;;;;22.23;9.88;;;;;;;4.89;80.80;99884.97;10224063;28;20134;-65
2022/11/19 10:15:14;;;;;;;19.63;8.75;;;;;;;4.89;81.01;99893.81;10226610;28;20122;-66
2022/11/19 10:20:43;;;;;;;20.45;8.93;;;;;;;4.87;80.87;99885.13;10223475;28;20138;-66
2022/11/19 10:25:47;;;;;;;23.77;10.32;;;;;;;4.93;80.40;99897.84;10229512;28;20145;-66
2022/11/19 10:30:51;;;;;;;20.52;9.50;;;;;;;4.87;80.67;99893.13;10225771;28;20130;-65
2022/11/19 10:36:01;;;;;;;18.88;9.63;;;;;;;4.86;80.70;99896.78;10227081;28;20620;-66
2022/11/19 10:41:11;;;;;;;21.65;9.32;;;;;;;5.00;80.38;99891.94;10229692;28;20047;-64
2022/11/19 10:46:20;;;;;;;23.05;10.63;;;;;;;5.02;80.16;99895.28;10227930;28;20086;-66
2022/11/19 10:51:27;;;;;;;20.35;9.60;;;;;;;5.05;80.66;99897.63;10238425;28;20069;-65
2022/11/19 10:56:39;;;;;;;25.42;11.48;;;;;;;5.10;80.52;99904.19;10232803;28;20126;-65
2022/11/19 11:01:44;;;;;;;22.50;11.13;;;;;;;5.18;80.17;99894.59;10231804;28;20134;-65
2022/11/19 11:06:57;;;;;;;23.50;10.23;;;;;;;5.11;80.41;99894.34;10235689;28;20056;-65
2022/11/19 11:17:31;;;;;;;21.38;10.15;;;;;;;4.95;80.58;99897.69;10223475;28;20054;-64
2022/11/19 11:22:34;;;;;;;23.33;10.73;;;;;;;5.00;80.06;99892.75;10224007;28;20043;-64
2022/11/19 11:27:35;;;;;;;25.27;11.40;;;;;;;5.01;80.09;99893.59;10230126;28;20043;-64
2022/11/19 11:32:38;;;;;;;25.23;10.48;;;;;;;5.12;80.11;99893.38;10231491;28;20131;-65
2022/11/19 11:37:39;;;;;;;27.73;12.68;;;;;;;5.19;79.63;99885.59;10240461;28;20581;-65
2022/11/19 11:42:41;;;;;;;24.33;11.57;;;;;;;5.08;79.96;99887.50;10234810;28;20058;-65
2022/11/19 11:47:42;;;;;;;29.02;11.38;;;;;;;5.12;80.37;99896.88;10221557;28;20457;-65
2022/11/19 11:52:50;;;;;;;23.90;10.80;;;;;;;5.12;80.28;99880.88;10236688;28;20110;-64
2022/11/19 11:57:57;;;;;;;24.85;10.63;;;;;;;5.16;80.24;99895.56;10236344;28;20071;-65
2022/11/19 12:03:02;;;;;;;22.13;10.67;;;;;;;5.10;80.33;99888.19;10248238;28;20126;-65
2022/11/19 12:08:06;;;;;;;18.52;9.02;;;;;;;5.16;79.57;99876.94;10238162;28;20150;-65
2022/11/19 12:13:32;;;;;;;21.35;9.73;;;;;;;5.14;80.13;99872.75;10232867;28;20490;-65
2022/11/19 12:19:15;;;;;;;24.70;10.77;;;;;;;5.32;79.69;99878.91;10243725;28;20138;-65
2022/11/19 12:24:42;;;;;;;22.92;11.07;;;;;;;5.45;80.12;99875.84;10237844;28;20047;-66
2022/11/19 12:30:04;;;;;;;22.95;10.30;;;;;;;5.45;80.57;99875.00;10236578;28;20133;-65
2022/11/19 12:35:15;;;;;;;22.05;10.13;;;;;;;5.43;80.41;99882.31;10238651;28;20071;-65
2022/11/19 12:40:21;;;;;;;22.55;10.05;;;;;;;5.37;79.88;99891.75;10235461;28;20063;-65
2022/11/19 12:45:44;;;;;;;25.45;10.48;;;;;;;5.41;79.94;99887.81;10238912;28;20138;-67
2022/11/19 12:50:55;;;;;;;21.23;10.70;;;;;;;5.40;80.15;99895.94;10230825;28;20130;-66
2022/11/19 12:56:25;;;;;;;19.23;9.93;;;;;;;5.31;79.60;99900.34;10228038;28;20582;-65
2022/11/19 13:01:32;;;;;;;20.55;9.93;;;;;;;5.21;80.28;99900.44;10236516;28;20043;-66
2022/11/19 13:06:57;;;;;;;22.42;10.57;;;;;;;5.18;79.71;99903.41;10236227;28;20151;-66
2022/11/19 13:12:06;;;;;;;20.13;9.35;;;;;;;5.19;79.75;99891.75;10224553;28;20380;-67
2022/11/19 13:17:40;;;;;;;20.42;9.60;;;;;;;5.22;79.22;99896.78;10230266;28;20122;-66
2022/11/19 13:22:45;;;;;;;18.08;8.73;;;;;;;5.19;79.72;99893.59;10235395;28;20115;-67
2022/11/19 13:27:50;;;;;;;20.63;9.93;;;;;;;5.10;79.71;99892.69;10240068;28;20479;-67
2022/11/19 13:33:09;;;;;;;19.50;9.50;;;;;;;5.18;79.39;99881.28;10231588;28;20463;-66
2022/11/19 13:38:24;;;;;;;22.52;10.15;;;;;;;5.24;79.79;99889.50;10225049;28;20045;-66
2022/11/19 13:49:04;;;;;;;20.42;9.70;;;;;;;5.30;79.20;99885.38;10238734;28;20071;-66
2022/11/19 13:54:07;;;;;;;17.40;9.50;;;;;;;5.24;79.23;99886.81;10240062;28;20176;-66
2022/11/19 13:59:28;;;;;;;23.63;11.43;;;;;;;5.22;79.40;99882.66;10230732;28;20070;-66
2022/11/19 14:04:51;;;;;;;23.27;11.50;;;;;;;5.29;79.10;99900.53;10160466;29;20048;-66
2022/11/19 14:10:12;;;;;;;19.00;10.10;;;;;;;5.41;79.33;99903.81;10161018;28;20472;-66
2022/11/19 14:26:51;;;;;;;20.13;8.65;;;;;;;5.50;78.76;99899.38;10146866;29;20048;-66
2022/11/19 14:31:58;;;;;;;24.13;9.98;;;;;;;5.54;78.92;99903.41;10143381;29;20496;-66
2022/11/19 14:37:09;;;;;;;20.50;9.95;;;;;;;5.54;78.92;99914.06;10149134;29;20056;-67
2022/11/19 14:42:15;;;;;;;19.38;9.02;;;;;;;5.42;78.74;99916.13;10147562;29;20139;-66
2022/11/19 14:47:16;;;;;;;17.45;9.68;;;;;;;5.44;79.29;99919.47;10154692;29;20052;-65
2022/11/19 14:52:31;;;;;;;14.52;7.90;;;;;;;5.33;78.65;99920.56;10162217;29;20083;-65
2022/11/19 14:57:36;;;;;;;19.98;9.57;;;;;;;5.35;79.00;99915.06;10153639;29;20131;-64
2022/11/19 15:02:44;;;;;;;19.10;9.15;;;;;;;5.42;78.66;99916.13;10206344;28;20074;-65
2022/11/19 15:07:50;;;;;;;20.20;9.65;;;;;;;5.43;78.11;99922.28;10240149;28;20047;-66
2022/11/19 15:13:22;;;;;;;15.27;8.32;;;;;;;5.35;78.20;99923.91;10230387;28;20174;-66
2022/11/19 15:18:39;;;;;;;17.58;8.75;;;;;;;5.34;78.60;99914.22;10229344;28;20462;-66
2022/11/19 15:23:51;;;;;;;18.67;8.82;;;;;;;5.31;78.32;99924.34;10232426;28;20063;-64
2022/11/19 15:29:14;;;;;;;18.88;9.10;;;;;;;5.30;78.32;99928.00;10225380;28;20177;-64
2022/11/19 15:34:41;;;;;;;18.58;9.15;;;;;;;5.12;78.38;99930.69;10230727;28;20109;-65
2022/11/19 15:40:05;;;;;;;19.95;9.57;;;;;;;5.19;78.80;99922.91;10237724;28;20057;-65
2022/11/19 15:45:16;;;;;;;17.05;9.30;;;;;;;5.15;78.55;99925.03;10226893;28;20048;-64
2022/11/19 15:50:21;;;;;;;17.90;8.73;;;;;;;5.11;78.54;99936.97;10229684;28;20155;-64
2022/11/19 15:55:29;;;;;;;16.30;7.95;;;;;;;5.11;78.32;99932.47;10234628;28;20114;-65
2022/11/19 16:00:42;;;;;;;16.90;8.68;;;;;;;5.07;78.08;99935.59;10227564;28;20093;-65
2022/11/19 16:05:57;;;;;;;16.65;8.23;;;;;;;4.94;78.21;99939.47;10232540;28;20047;-66
2022/11/19 16:21:52;;;;;;;16.98;7.97;;;;;;;4.91;78.50;99958.41;10229368;28;20505;-66
2022/11/19 16:26:54;;;;;;;15.82;8.27;;;;;;;4.91;78.31;99957.56;10225872;28;20163;-65
2022/11/19 16:31:58;;;;;;;15.90;8.48;;;;;;;4.91;78.20;99952.25;10223823;28;20143;-65
2022/11/19 16:37:00;;;;;;;16.10;7.82;;;;;;;4.80;78.41;99953.31;10218521;28;20075;-62
2022/11/19 16:42:18;;;;;;;18.88;9.05;;;;;;;4.82;78.51;99954.00;10272249;28;20023;-65
2022/11/19 16:47:54;;;;;;;18.50;8.60;;;;;;;4.74;78.46;99959.22;10272775;28;20082;-64
2022/11/19 16:52:55;;;;;;;15.90;8.07;;;;;;;4.77;78.24;99951.75;10383012;23;20141;-88
2022/11/19 16:58:17;;;;;;;17.00;8.93;;;;;;;4.86;78.35;99943.84;10247471;28;20228;-87
2022/11/19 17:03:27;;;;;;;18.63;8.77;;;;;;;4.82;78.24;99953.13;10230597;29;20051;-87
2022/11/19 17:08:38;;;;;;;15.82;8.35;;;;;;;4.87;78.03;99953.53;10231195;28;20059;-87
2022/11/19 17:13:39;;;;;;;18.15;8.57;;;;;;;4.89;77.98;99944.41;10243111;28;20133;-87
2022/11/19 17:18:41;;;;;;;21.60;9.63;;;;;;;4.91;77.86;99945.09;10230002;28;20069;-86
2022/11/19 17:23:47;;;;;;;18.45;9.23;;;;;;;4.82;78.13;99963.78;10203964;28;20044;-87
2022/11/19 17:28:53;;;;;;;19.00;8.60;;;;;;;4.91;78.07;99960.25;10237819;28;20379;-87
2022/11/19 17:34:11;;;;;;;17.55;9.32;;;;;;;5.00;76.95;99963.84;10223692;28;20062;-87
2022/11/19 17:39:16;;;;;;;16.75;8.85;;;;;;;4.89;77.92;99956.88;10225036;28;20055;-88
2022/11/19 17:44:35;;;;;;;24.27;9.63;;;;;;;4.85;77.55;99956.34;10213048;29;20106;-88
2022/11/19 17:49:36;;;;;;;19.00;8.43;;;;;;;4.87;77.55;99962.34;10241250;28;20323;-88
2022/11/19 17:54:38;;;;;;;17.17;9.43;;;;;;;4.80;77.59;99961.28;10224812;28;20106;-87
2022/11/19 17:59:40;;;;;;;17.60;9.57;;;;;;;4.85;77.71;99982.13;10227202;29;20122;-87
2022/11/19 18:04:43;;;;;;;17.33;8.60;;;;;;;4.83;77.58;99992.09;10232984;28;20055;-87
2022/11/19 18:09:44;;;;;;;16.50;8.52;;;;;;;4.83;77.97;99990.28;10297780;23;20037;-64
2022/11/19 18:14:46;;;;;;;17.83;9.27;;;;;;;4.93;77.51;99991.06;10154588;29;20025;-65
2022/11/19 18:19:47;;;;;;;15.68;9.00;;;;;;;4.93;77.38;99993.72;10147820;29;20056;-64
2022/11/19 18:24:50;;;;;;;17.45;8.77;;;;;;;4.93;77.54;99984.91;10154349;29;20056;-65
2022/11/19 18:29:52;;;;;;;18.67;9.00;;;;;;;4.92;77.44;99991.22;10153478;29;20130;-64
2022/11/19 18:34:53;;;;;;;17.27;9.18;;;;;;;4.86;77.44;99989.13;10162878;29;20063;-65
2022/11/19 18:40:00;;;;;;;15.95;8.27;;;;;;;4.83;77.97;100000.91;10163922;29;20044;-64
2022/11/19 18:45:02;;;;;;;20.42;9.63;;;;;;;4.79;77.28;100001.38;10162618;29;20049;-66
2022/11/19 18:50:04;;;;;;;23.30;9.98;;;;;;;4.74;78.05;100005.31;10151819;29;20037;-66
2022/11/19 18:55:06;;;;;;;17.38;8.43;;;;;;;4.74;78.00;100000.00;10172647;28;20041;-65
2022/11/19 19:00:07;;;;;;;21.63;10.25;;;;;;;4.74;77.45;99994.66;10161745;29;20044;-66
2022/11/19 19:05:09;;;;;;;18.02;8.25;;;;;;;4.73;77.57;99998.31;10496220;23;20062;-67
2022/11/19 19:10:10;;;;;;;15.15;8.23;;;;;;;4.67;77.34;100011.38;10269456;28;20028;-67
2022/11/19 19:15:12;;;;;;;19.17;9.18;;;;;;;4.71;77.16;100010.94;10280945;28;20043;-66
2022/11/19 19:20:13;;;;;;;21.17;9.20;;;;;;;4.85;77.27;100011.44;10806527;23;20051;-68
2022/11/19 20:14:54;;;;;;;17.52;8.32;;;;;;;4.97;76.61;100029.72;10967292;23;20067;-66
2022/11/19 20:19:55;;;;;;;18.67;9.23;;;;;;;4.96;76.97;100025.41;10243793;28;20072;-66
2022/11/19 20:24:56;;;;;;;22.50;10.25;;;;;;;4.94;76.62;100022.03;10235695;28;20036;-66
2022/11/19 20:29:58;;;;;;;19.15;10.18;;;;;;;4.92;76.23;100026.69;10242888;28;20098;-65
2022/11/19 20:35:00;;;;;;;17.40;9.07;;;;;;;4.99;76.75;100015.44;10238981;28;20047;-65
2022/11/19 20:40:02;;;;;;;17.38;9.10;;;;;;;5.00;76.31;100028.59;10236847;29;20079;-65
2022/11/19 20:45:04;;;;;;;17.25;8.48;;;;;;;4.99;76.72;100029.56;10243943;28;20036;-65
2022/11/19 20:50:05;;;;;;;17.90;8.65;;;;;;;4.97;76.48;100031.56;10245910;28;20071;-65
2022/11/19 20:55:07;;;;;;;18.95;8.43;;;;;;;4.85;76.77;100040.72;10239253;28;20039;-66
2022/11/19 21:00:10;;;;;;;20.63;10.77;;;;;;;4.88;76.60;100035.13;10242411;29;20035;-65
2022/11/19 21:05:11;;;;;;;17.40;9.40;;;;;;;4.75;77.02;100036.25;10229163;28;20058;-64
2022/11/19 21:10:13;;;;;;;17.40;9.07;;;;;;;4.75;76.78;100035.44;10233988;28;20060;-64
2022/11/19 21:15:14;;;;;;;20.50;9.45;;;;;;;4.75;76.40;100038.09;10240141;28;20059;-66
2022/11/19 21:20:16;;;;;;;19.52;10.35;;;;;;;4.76;76.56;100034.47;10240420;28;20036;-65
2022/11/19 21:25:17;;;;;;;20.00;9.38;;;;;;;4.68;76.71;100035.19;10242351;28;20054;-67
2022/11/19 21:30:19;;;;;;;19.00;9.48;;;;;;;4.77;76.40;100044.13;10241269;29;20032;-65
2022/11/19 21:35:20;;;;;;;24.13;10.43;;;;;;;4.84;76.37;100042.56;10239070;28;20051;-65
2022/11/19 21:40:22;;;;;;;18.60;9.18;;;;;;;4.85;76.26;100032.72;10236145;28;20036;-65
2022/11/19 21:45:23;;;;;;;17.00;8.55;;;;;;;4.86;76.60;100032.59;10226676;28;20036;-65
2022/11/19 21:50:25;;;;;;;17.42;9.13;;;;;;;4.84;76.33;100026.56;10243552;28;20055;-65
2022/11/19 21:55:27;;;;;;;19.40;9.18;;;;;;;4.81;76.33;100020.72;10236489;28;20069;-65
2022/11/19 22:00:29;;;;;;;18.23;9.13;;;;;;;4.89;76.25;100018.13;10239041;29;20020;-66
2022/11/19 22:05:30;;;;;;;16.63;8.85;;;;;;;4.84;76.14;100021.25;10243844;28;20063;-66
2022/11/19 22:10:31;;;;;;;16.85;8.65;;;;;;;4.75;76.61;100022.97;10238634;28;20050;-65
2022/11/19 22:15:33;;;;;;;16.40;8.07;;;;;;;4.68;76.56;100034.34;10239403;28;20067;-64
2022/11/19 22:20:34;;;;;;;18.75;9.27;;;;;;;4.72;76.55;100027.72;10226868;29;20263;-64
2022/11/19 22:25:35;;;;;;;17.42;9.18;;;;;;;4.80;76.06;100027.88;10227151;29;20043;-64
2022/11/19 22:30:37;;;;;;;20.27;10.25;;;;;;;4.82;76.36;100028.56;10224148;29;20043;-64
2022/11/19 22:35:38;;;;;;;17.05;8.55;;;;;;;4.84;76.25;100020.38;10219486;29;20040;-65
2022/11/19 22:40:39;;;;;;;18.20;9.30;;;;;;;4.85;76.26;100019.41;10227585;29;20056;-64
2022/11/19 22:45:44;;;;;;;19.65;9.68;;;;;;;4.81;76.07;100012.72;10235681;29;20069;-65
2022/11/19 22:50:45;;;;;;;18.10;9.32;;;;;;;4.82;76.45;100009.91;10235433;29;20040;-64
2022/11/19 22:55:47;;;;;;;20.45;9.50;;;;;;;4.92;75.69;100015.19;10239646;28;20036;-63
2022/11/19 23:00:48;;;;;;;20.10;10.05;;;;;;;4.86;76.34;100008.63;10232228;29;20071;-64
2022/11/19 23:05:51;;;;;;;22.33;9.35;;;;;;;4.89;76.12;99996.84;10235317;29;20039;-63
2022/11/19 23:10:57;;;;;;;17.77;8.63;;;;;;;4.84;76.38;99991.97;10232864;29;20039;-65
2022/11/19 23:16:01;;;;;;;18.60;8.77;;;;;;;4.90;76.11;99986.03;10233339;28;20040;-63
2022/11/19 23:21:06;;;;;;;21.48;9.68;;;;;;;4.95;76.12;99985.59;10226720;29;20048;-63
2022/11/19 23:26:10;;;;;;;18.75;8.82;;;;;;;4.96;75.81;99992.59;10221786;29;20047;-64
2022/11/19 23:31:17;;;;;;;17.60;8.57;;;;;;;4.69;76.59;99988.09;10231464;29;20051;-63
2022/11/19 23:36:21;;;;;;;19.65;9.38;;;;;;;4.69;76.70;99986.28;10233637;29;20063;-64
2022/11/19 23:41:23;;;;;;;17.65;9.30;;;;;;;4.77;76.15;99985.53;10236402;29;20098;-63
2022/11/19 23:46:30;;;;;;;18.58;9.60;;;;;;;4.84;76.27;99969.78;10238934;29;20047;-64
2022/11/19 23:51:36;;;;;;;20.63;9.85;;;;;;;4.88;75.96;99977.38;10222964;29;20047;-63
2022/11/19 23:56:38;;;;;;;20.70;9.48;;;;;;;4.84;76.55;99981.31;10236040;29;20040;-63
